createdAt,value
2023-04-22T00:01:58.875Z,32.70
2023-04-22T00:04:26.111Z,33.00
2023-04-22T00:06:53.414Z,33.30
2023-04-22T00:09:20.419Z,33.80
2023-04-22T00:11:47.566Z,33.00
2023-04-22T00:14:14.564Z,32.30
2023-04-22T00:16:41.663Z,32.90
2023-04-22T00:19:09.333Z,33.80
2023-04-22T00:21:36.684Z,34.30
2023-04-22T00:24:03.981Z,34.30
2023-04-22T00:26:31.186Z,34.00
2023-04-22T00:28:58.306Z,34.20
2023-04-22T00:31:25.606Z,34.80
2023-04-22T00:33:53.212Z,34.70
2023-04-22T00:36:20.185Z,35.10
2023-04-22T00:38:51.203Z,35.00
2023-04-22T00:41:18.859Z,34.80
2023-04-22T00:43:46.914Z,34.50
2023-04-22T00:46:16.461Z,34.20
2023-04-22T00:48:43.906Z,33.90
2023-04-22T00:51:10.846Z,34.00
2023-04-22T00:53:37.844Z,34.10
2023-04-22T00:56:05.166Z,34.60
2023-04-22T00:58:33.487Z,33.90
2023-04-22T01:01:00.726Z,34.30
2023-04-22T01:03:30.817Z,34.60
2023-04-22T01:05:58.415Z,34.40
2023-04-22T01:08:30.077Z,34.60
2023-04-22T01:10:58.122Z,34.70
2023-04-22T01:13:25.330Z,35.00
2023-04-22T01:15:53.906Z,34.50
2023-04-22T01:18:20.978Z,34.90
2023-04-22T01:20:48.537Z,34.60
2023-04-22T01:23:23.425Z,34.60
2023-04-22T01:25:50.963Z,34.40
2023-04-22T01:28:18.804Z,34.30
2023-04-22T01:30:46.095Z,34.60
2023-04-22T01:33:13.255Z,34.30
2023-04-22T01:35:41.399Z,33.80
2023-04-22T01:38:10.673Z,33.90
2023-04-22T01:40:38.756Z,33.80
2023-04-22T01:43:06.676Z,34.10
2023-04-22T01:45:35.294Z,34.00
2023-04-22T01:48:02.434Z,34.30
2023-04-22T01:50:30.460Z,33.50
2023-04-22T01:52:57.962Z,32.90
2023-04-22T01:55:25.172Z,33.10
2023-04-22T01:57:52.553Z,33.30
2023-04-22T02:00:20.354Z,32.70
2023-04-22T02:02:47.510Z,32.30
2023-04-22T02:05:14.837Z,32.50
2023-04-22T02:07:41.940Z,33.10
2023-04-22T02:10:09.836Z,32.90
2023-04-22T02:12:36.826Z,32.20
2023-04-22T02:15:04.439Z,32.40
2023-04-22T02:17:31.717Z,32.90
2023-04-22T02:19:58.982Z,32.70
2023-04-22T02:22:26.032Z,31.90
2023-04-22T02:24:53.279Z,31.60
2023-04-22T02:27:21.405Z,31.70
2023-04-22T02:29:48.562Z,32.20
2023-04-22T02:32:17.463Z,33.10
2023-04-22T02:34:44.541Z,33.60
2023-04-22T02:37:11.503Z,33.80
2023-04-22T02:39:38.679Z,34.00
2023-04-22T02:42:05.934Z,34.00
2023-04-22T02:44:32.927Z,33.50
2023-04-22T02:46:59.950Z,33.40
2023-04-22T02:49:27.196Z,34.00
2023-04-22T02:51:54.270Z,34.10
2023-04-22T02:54:21.339Z,34.20
2023-04-22T02:56:48.456Z,33.70
2023-04-22T02:59:15.484Z,33.90
2023-04-22T03:01:42.594Z,34.00
2023-04-22T03:04:12.512Z,34.10
2023-04-22T03:06:39.810Z,34.30
2023-04-22T03:09:06.992Z,34.10
2023-04-22T03:11:34.158Z,34.20
2023-04-22T03:14:01.212Z,33.80
2023-04-22T03:16:28.262Z,34.00
2023-04-22T03:18:55.321Z,33.90
2023-04-22T03:21:22.390Z,34.00
2023-04-22T03:23:49.352Z,33.90
2023-04-22T03:26:16.424Z,33.90
2023-04-22T03:28:43.433Z,33.90
2023-04-22T03:31:10.546Z,33.90
2023-04-22T03:33:37.612Z,34.00
2023-04-22T03:36:04.821Z,33.70
2023-04-22T03:38:31.794Z,33.40
2023-04-22T03:40:58.878Z,33.50
2023-04-22T03:43:25.915Z,33.40
2023-04-22T03:45:52.988Z,33.40
2023-04-22T03:48:20.210Z,33.40
2023-04-22T03:50:47.208Z,33.10
2023-04-22T03:53:14.240Z,33.20
2023-04-22T03:55:41.398Z,33.40
2023-04-22T03:58:08.343Z,33.50
2023-04-22T04:00:35.352Z,33.50
2023-04-22T04:03:02.548Z,33.60
2023-04-22T04:05:29.807Z,33.50
2023-04-22T04:07:57.103Z,33.80
2023-04-22T04:10:24.262Z,33.60
2023-04-22T04:12:51.506Z,33.00
2023-04-22T04:15:21.582Z,32.90
2023-04-22T04:17:51.069Z,33.00
2023-04-22T04:20:18.421Z,33.10
2023-04-22T04:22:45.637Z,33.50
2023-04-22T04:25:12.723Z,33.70
2023-04-22T04:27:41.785Z,34.20
2023-04-22T04:30:09.922Z,34.30
2023-04-22T04:32:38.225Z,34.60
2023-04-22T04:35:06.322Z,34.50
2023-04-22T04:37:33.355Z,34.70
2023-04-22T04:40:00.461Z,34.80
2023-04-22T04:42:27.450Z,34.80
2023-04-22T04:44:54.643Z,35.00
2023-04-22T04:47:22.725Z,34.90
2023-04-22T04:49:53.426Z,35.10
2023-04-22T04:52:20.462Z,35.40
2023-04-22T04:54:47.457Z,35.50
2023-04-22T04:57:14.483Z,35.70
2023-04-22T04:59:41.648Z,35.40
2023-04-22T05:02:09.071Z,35.40
2023-04-22T05:04:36.681Z,35.10
2023-04-22T05:07:04.255Z,34.30
2023-04-22T05:09:37.779Z,34.00
2023-04-22T05:12:08.641Z,34.20
2023-04-22T05:14:35.668Z,35.10
2023-04-22T05:17:03.328Z,34.80
2023-04-22T05:19:30.580Z,34.20
2023-04-22T05:21:59.724Z,35.10
2023-04-22T05:24:26.727Z,35.60
2023-04-22T05:26:53.869Z,35.80
2023-04-22T05:29:20.957Z,36.10
2023-04-22T05:31:47.965Z,36.20
2023-04-22T05:34:15.142Z,36.30
2023-04-22T05:36:42.379Z,36.50
2023-04-22T05:39:09.405Z,35.90
2023-04-22T05:41:36.600Z,35.90
2023-04-22T05:44:04.261Z,36.60
2023-04-22T05:46:31.627Z,36.80
2023-04-22T05:48:58.894Z,36.90
2023-04-22T05:51:25.886Z,36.70
2023-04-22T05:53:53.137Z,36.90
2023-04-22T05:56:22.365Z,36.30
2023-04-22T05:58:49.510Z,35.70
2023-04-22T06:01:16.531Z,36.30
2023-04-22T06:03:43.806Z,36.60
2023-04-22T06:06:11.070Z,36.80
2023-04-22T06:08:38.064Z,36.30
2023-04-22T06:11:05.290Z,36.40
2023-04-22T06:13:32.238Z,36.40
2023-04-22T06:15:59.463Z,36.00
2023-04-22T06:18:28.038Z,36.10
2023-04-22T06:20:56.829Z,36.60
2023-04-22T06:23:23.866Z,37.00
2023-04-22T06:25:50.888Z,37.30
2023-04-22T06:28:17.859Z,37.50
2023-04-22T06:30:44.974Z,36.60
2023-04-22T06:33:12.647Z,36.90
2023-04-22T06:35:39.945Z,36.50
2023-04-22T06:38:06.921Z,37.10
2023-04-22T06:40:33.900Z,36.90
2023-04-22T06:43:01.084Z,37.90
2023-04-22T06:45:28.110Z,38.80
2023-04-22T06:47:55.247Z,39.60
2023-04-22T06:50:22.250Z,39.90
2023-04-22T06:52:49.706Z,40.20
2023-04-22T06:55:16.922Z,40.30
2023-04-22T06:57:43.848Z,40.60
2023-04-22T07:00:11.705Z,41.00
2023-04-22T07:02:38.860Z,40.70
2023-04-22T07:05:07.093Z,41.30
2023-04-22T07:07:34.227Z,41.60
2023-04-22T07:10:01.311Z,41.90
2023-04-22T07:12:28.396Z,42.10
2023-04-22T07:14:56.677Z,42.10
2023-04-22T07:17:23.859Z,41.50
2023-04-22T07:19:51.403Z,42.00
2023-04-22T07:22:18.412Z,41.70
2023-04-22T07:24:45.408Z,41.40
2023-04-22T07:27:12.452Z,42.10
2023-04-22T07:29:39.682Z,42.00
2023-04-22T07:32:06.959Z,42.20
2023-04-22T07:34:34.072Z,43.00
2023-04-22T07:37:01.445Z,42.40
2023-04-22T07:39:28.599Z,42.10
2023-04-22T07:41:57.925Z,42.90
2023-04-22T07:44:24.951Z,42.20
2023-04-22T07:46:52.002Z,41.50
2023-04-22T07:49:20.080Z,41.40
2023-04-22T07:51:47.441Z,41.50
2023-04-22T07:54:14.450Z,41.50
2023-04-22T07:56:41.663Z,42.30
2023-04-22T07:59:08.645Z,42.50
2023-04-22T08:01:35.733Z,42.80
2023-04-22T08:04:03.269Z,43.00
2023-04-22T08:06:30.894Z,43.40
2023-04-22T08:08:57.966Z,43.10
2023-04-22T08:11:25.298Z,43.20
2023-04-22T08:13:52.285Z,43.70
2023-04-22T08:16:19.641Z,43.40
2023-04-22T08:18:47.074Z,42.80
2023-04-22T08:21:14.775Z,43.30
2023-04-22T08:23:44.431Z,43.40
2023-04-22T08:26:17.619Z,44.10
2023-04-22T08:28:44.889Z,44.30
2023-04-22T08:31:13.128Z,44.40
2023-04-22T08:33:41.778Z,44.20
2023-04-22T08:36:11.221Z,44.10
2023-04-22T08:38:38.263Z,44.10
2023-04-22T08:41:07.220Z,44.60
2023-04-22T08:43:38.180Z,44.70
2023-04-22T08:46:06.139Z,45.00
2023-04-22T08:48:33.514Z,44.70
2023-04-22T08:51:01.185Z,45.20
2023-04-22T08:53:29.247Z,44.60
2023-04-22T08:55:57.493Z,44.50
2023-04-22T08:58:24.988Z,44.80
2023-04-22T09:00:53.027Z,45.30
2023-04-22T09:03:20.695Z,45.30
2023-04-22T09:05:50.611Z,45.00
2023-04-22T09:08:17.786Z,45.00
2023-04-22T09:10:46.272Z,45.50
2023-04-22T09:13:14.877Z,44.20
2023-04-22T09:15:41.888Z,44.90
2023-04-22T09:18:10.199Z,45.70
2023-04-22T09:20:42.254Z,44.60
2023-04-22T09:23:12.015Z,44.90
2023-04-22T09:25:39.338Z,44.30
2023-04-22T09:28:07.002Z,44.70
2023-04-22T09:30:36.886Z,45.30
2023-04-22T09:33:08.034Z,44.40
2023-04-22T09:35:40.701Z,44.40
2023-04-22T09:38:10.685Z,44.50
2023-04-22T09:40:43.348Z,44.20
2023-04-22T09:43:11.677Z,44.90
2023-04-22T09:45:43.195Z,44.70
2023-04-22T09:48:14.938Z,44.70
2023-04-22T09:50:48.057Z,44.30
2023-04-22T09:53:17.177Z,43.90
2023-04-22T09:55:55.804Z,44.10
2023-04-22T09:58:24.104Z,44.30
2023-04-22T10:00:59.536Z,43.80
2023-04-22T10:03:28.158Z,42.70
2023-04-22T10:05:55.310Z,42.70
2023-04-22T10:08:22.546Z,42.10
2023-04-22T10:10:49.724Z,41.90
2023-04-22T10:13:16.932Z,42.10
2023-04-22T10:15:52.270Z,41.90
2023-04-22T10:18:26.113Z,42.00
2023-04-22T10:20:55.020Z,43.00
2023-04-22T10:23:24.679Z,44.60
2023-04-22T10:25:54.914Z,45.10
2023-04-22T10:28:22.570Z,44.70
2023-04-22T10:30:50.560Z,44.50
2023-04-22T10:33:31.905Z,44.10
2023-04-22T10:36:20.396Z,44.90
2023-04-22T10:38:50.585Z,45.00
2023-04-22T10:41:22.643Z,44.90
2023-04-22T10:43:59.691Z,44.40
2023-04-22T10:46:37.896Z,44.30
2023-04-22T10:49:20.750Z,42.70
2023-04-22T10:51:56.112Z,44.10
2023-04-22T10:54:37.994Z,45.10
2023-04-22T10:57:07.171Z,45.10
2023-04-22T10:59:50.195Z,45.00
2023-04-22T11:02:19.154Z,45.50
2023-04-22T11:04:46.859Z,45.00
2023-04-22T11:07:35.512Z,45.60
2023-04-22T11:10:10.693Z,45.60
2023-04-22T11:12:42.223Z,44.90
2023-04-22T11:15:11.526Z,44.00
2023-04-22T11:17:40.218Z,44.10
2023-04-22T11:20:09.542Z,43.30
2023-04-22T11:22:45.343Z,42.60
2023-04-22T11:25:12.543Z,42.80
2023-04-22T11:27:41.243Z,42.30
2023-04-22T11:30:12.555Z,42.00
2023-04-22T11:32:48.306Z,43.20
2023-04-22T11:35:23.422Z,43.00
2023-04-22T11:37:53.015Z,42.00
2023-04-22T11:40:30.680Z,43.00
2023-04-22T11:43:00.909Z,43.40
2023-04-22T11:45:30.010Z,43.90
2023-04-22T11:47:57.343Z,45.00
2023-04-22T11:50:26.986Z,45.10
2023-04-22T11:52:55.361Z,44.90
2023-04-22T11:55:31.230Z,44.80
2023-04-22T11:58:03.170Z,44.40
2023-04-22T12:00:33.452Z,44.80
2023-04-22T12:03:04.951Z,45.20
2023-04-22T12:05:41.117Z,45.80
2023-04-22T12:08:16.248Z,46.90
2023-04-22T12:10:52.611Z,47.50
2023-04-22T12:13:27.506Z,47.40
2023-04-22T12:16:00.152Z,47.20
2023-04-22T12:18:34.916Z,46.60
2023-04-22T12:21:04.856Z,45.30
2023-04-22T12:23:42.536Z,44.10
2023-04-22T12:26:11.617Z,44.10
2023-04-22T12:28:39.148Z,44.40
2023-04-22T12:31:06.373Z,45.30
2023-04-22T12:33:35.195Z,44.90
2023-04-22T12:36:03.273Z,44.40
2023-04-22T12:38:30.315Z,44.30
2023-04-22T12:40:58.031Z,44.10
2023-04-22T12:43:28.376Z,44.60
2023-04-22T12:45:55.630Z,44.80
2023-04-22T12:48:22.721Z,44.00
2023-04-22T12:50:49.752Z,44.80
2023-04-22T12:53:16.849Z,44.00
2023-04-22T12:55:46.021Z,44.60
2023-04-22T12:58:13.273Z,44.10
2023-04-22T13:00:40.909Z,43.70
2023-04-22T13:03:08.190Z,43.20
2023-04-22T13:05:35.672Z,42.90
2023-04-22T13:08:07.516Z,43.10
2023-04-22T13:10:35.989Z,43.40
2023-04-22T13:15:34.849Z,43.90
2023-04-22T13:18:02.621Z,43.50
2023-04-22T13:20:29.877Z,43.70
2023-04-22T13:22:56.973Z,43.30
2023-04-22T13:25:23.921Z,42.50
2023-04-22T13:27:51.234Z,42.80
2023-04-22T13:30:18.294Z,42.50
2023-04-22T13:32:46.670Z,42.50
2023-04-22T13:35:13.760Z,42.60
2023-04-22T13:37:40.826Z,42.80
2023-04-22T13:40:11.169Z,42.80
2023-04-22T13:42:38.228Z,42.40
2023-04-22T13:45:07.151Z,41.40
2023-04-22T13:47:34.289Z,41.90
2023-04-22T13:50:02.089Z,41.40
2023-04-22T13:52:29.389Z,42.10
2023-04-22T13:55:03.051Z,42.90
2023-04-22T13:57:30.852Z,42.60
2023-04-22T13:59:58.129Z,42.70
2023-04-22T14:02:25.311Z,42.60
2023-04-22T14:04:52.472Z,41.90
2023-04-22T14:07:19.918Z,42.40
2023-04-22T14:09:46.937Z,42.80
2023-04-22T14:12:14.102Z,42.90
2023-04-22T14:14:41.089Z,42.70
2023-04-22T14:17:08.449Z,42.60
2023-04-22T14:19:41.941Z,41.60
2023-04-22T14:22:09.270Z,41.00
2023-04-22T14:24:36.325Z,41.90
2023-04-22T14:27:03.600Z,42.20
2023-04-22T14:29:31.102Z,41.40
2023-04-22T14:31:58.675Z,41.60
2023-04-22T14:34:27.379Z,41.50
2023-04-22T14:36:55.910Z,42.10
2023-04-22T14:39:22.890Z,43.20
2023-04-22T14:41:49.999Z,43.80
2023-04-22T14:44:17.381Z,43.70
2023-04-22T14:46:45.290Z,43.10
2023-04-22T14:49:12.416Z,42.90
2023-04-22T14:51:39.429Z,42.40
2023-04-22T14:54:07.481Z,42.40
2023-04-22T14:56:34.565Z,42.30
2023-04-22T14:59:04.088Z,42.40
2023-04-22T15:01:32.728Z,42.70
2023-04-22T15:03:59.908Z,42.60
2023-04-22T15:06:27.604Z,42.40
2023-04-22T15:08:55.941Z,42.30
2023-04-22T15:11:22.977Z,41.70
2023-04-22T15:13:50.193Z,40.20
2023-04-22T15:16:17.831Z,40.30
2023-04-22T15:18:44.905Z,39.50
2023-04-22T15:21:12.258Z,38.30
2023-04-22T15:23:39.277Z,37.70
2023-04-22T15:26:06.706Z,38.10
2023-04-22T15:28:34.176Z,38.90
2023-04-22T15:31:01.625Z,38.60
2023-04-22T15:33:28.695Z,38.00
2023-04-22T15:35:55.825Z,37.90
2023-04-22T15:38:23.703Z,38.90
2023-04-22T15:40:51.810Z,39.00
2023-04-22T15:43:20.974Z,37.50
2023-04-22T15:45:48.006Z,36.50
2023-04-22T15:48:15.337Z,36.30
2023-04-22T15:50:42.349Z,37.00
2023-04-22T15:53:09.328Z,37.10
2023-04-22T15:55:36.281Z,37.40
2023-04-22T15:58:03.379Z,37.50
2023-04-22T16:00:30.381Z,37.30
2023-04-22T16:02:57.594Z,36.00
2023-04-22T16:05:25.340Z,36.20
2023-04-22T16:07:56.847Z,37.20
2023-04-22T16:10:26.371Z,36.90
2023-04-22T16:12:53.395Z,35.80
2023-04-22T16:15:22.583Z,35.60
2023-04-22T16:17:49.989Z,35.20
2023-04-22T16:20:17.226Z,36.30
2023-04-22T16:22:44.187Z,36.70
2023-04-22T16:25:11.251Z,37.10
2023-04-22T16:27:38.353Z,36.90
2023-04-22T16:30:06.088Z,36.20
2023-04-22T16:32:33.236Z,36.10
2023-04-22T16:35:00.309Z,36.30
2023-04-22T16:37:27.646Z,36.30
2023-04-22T16:39:54.708Z,36.50
2023-04-22T16:42:23.179Z,36.20
2023-04-22T16:44:51.483Z,36.80
2023-04-22T16:47:18.999Z,37.00
2023-04-22T16:49:46.881Z,37.70
2023-04-22T16:52:13.814Z,37.70
2023-04-22T16:54:42.628Z,37.40
2023-04-22T16:57:10.636Z,37.70
2023-04-22T16:59:38.562Z,37.00
2023-04-22T17:02:06.071Z,37.00
2023-04-22T17:04:33.335Z,37.30
2023-04-22T17:07:00.438Z,37.30
2023-04-22T17:09:27.589Z,37.30
2023-04-22T17:11:55.540Z,38.50
2023-04-22T17:14:22.506Z,38.90
2023-04-22T17:16:49.630Z,39.10
2023-04-22T17:19:16.699Z,39.10
2023-04-22T17:21:44.026Z,39.60
2023-04-22T17:24:11.058Z,39.80
2023-04-22T17:26:39.733Z,39.90
2023-04-22T17:29:06.779Z,39.60
2023-04-22T17:31:34.401Z,38.80
2023-04-22T17:34:02.226Z,38.20
2023-04-22T17:36:29.236Z,38.10
2023-04-22T17:38:57.439Z,38.00
2023-04-22T17:41:24.598Z,38.70
2023-04-22T17:43:52.022Z,38.90
2023-04-22T17:46:19.009Z,39.00
2023-04-22T17:48:46.895Z,39.10
2023-04-22T17:51:14.481Z,39.30
2023-04-22T17:53:42.156Z,38.80
2023-04-22T17:56:09.500Z,39.10
2023-04-22T17:58:39.405Z,39.10
2023-04-22T18:01:07.326Z,39.30
2023-04-22T18:03:35.398Z,39.10
2023-04-22T18:06:02.637Z,39.10
2023-04-22T18:08:30.053Z,39.40
2023-04-22T18:10:57.853Z,39.50
2023-04-22T18:13:26.126Z,39.70
2023-04-22T18:15:53.274Z,39.70
2023-04-22T18:18:20.605Z,39.90
2023-04-22T18:20:48.250Z,40.10
2023-04-22T18:23:15.477Z,40.20
2023-04-22T18:25:42.492Z,40.30
2023-04-22T18:28:09.560Z,40.30
2023-04-22T18:30:36.532Z,39.90
2023-04-22T18:33:04.836Z,40.10
2023-04-22T18:35:33.025Z,40.10
2023-04-22T18:38:00.006Z,40.10
2023-04-22T18:40:27.018Z,40.10
2023-04-22T18:42:55.565Z,39.90
2023-04-22T18:45:25.028Z,39.60
2023-04-22T18:47:52.162Z,39.40
2023-04-22T18:50:19.314Z,39.50
2023-04-22T18:52:46.356Z,39.30
2023-04-22T18:55:13.435Z,39.40
2023-04-22T18:57:41.642Z,39.40
2023-04-22T19:00:09.925Z,38.90
2023-04-22T19:02:39.961Z,38.60
2023-04-22T19:05:09.138Z,38.80
2023-04-22T19:07:37.330Z,38.90
2023-04-22T19:10:04.779Z,38.80
2023-04-22T19:12:31.923Z,38.50
2023-04-22T19:15:00.434Z,38.60
2023-04-22T19:17:28.020Z,38.00
2023-04-22T19:19:55.340Z,37.30
2023-04-22T19:22:22.764Z,37.30
2023-04-22T19:24:50.116Z,37.40
2023-04-22T19:27:17.703Z,37.60
2023-04-22T19:29:51.230Z,37.70
2023-04-22T19:32:19.872Z,37.80
2023-04-22T19:34:47.674Z,37.80
2023-04-22T19:37:15.229Z,37.50
2023-04-22T19:39:42.720Z,37.20
2023-04-22T19:42:11.722Z,36.70
2023-04-22T19:44:41.235Z,36.50
2023-04-22T19:47:08.630Z,36.10
2023-04-22T19:49:36.296Z,35.90
2023-04-22T19:52:03.880Z,35.80
2023-04-22T19:54:32.192Z,35.70
2023-04-22T19:57:02.221Z,35.40
2023-04-22T19:59:31.767Z,35.40
2023-04-22T20:01:59.636Z,35.60
2023-04-22T20:04:27.531Z,36.20
2023-04-22T20:06:55.190Z,36.20
2023-04-22T20:09:22.374Z,35.60
2023-04-22T20:11:50.124Z,35.80
2023-04-22T20:14:18.485Z,35.40
2023-04-22T20:16:47.924Z,35.40
2023-04-22T20:19:17.211Z,35.80
2023-04-22T20:21:47.647Z,35.90
2023-04-22T20:24:19.995Z,35.50
2023-04-22T20:26:49.741Z,36.00
2023-04-22T20:29:20.105Z,36.10
2023-04-22T20:31:47.529Z,35.70
2023-04-22T20:34:14.705Z,36.00
2023-04-22T20:36:42.853Z,35.80
2023-04-22T20:39:14.356Z,35.30
2023-04-22T20:41:41.811Z,35.40
2023-04-22T20:44:09.411Z,35.40
2023-04-22T20:46:37.573Z,35.40
2023-04-22T20:49:04.782Z,35.50
2023-04-22T20:51:32.116Z,35.20
2023-04-22T20:53:59.111Z,35.70
2023-04-22T20:56:27.378Z,35.80
2023-04-22T20:58:54.565Z,35.90
2023-04-22T21:01:21.734Z,35.60
2023-04-22T21:03:52.669Z,35.20
2023-04-22T21:06:21.544Z,35.30
2023-04-22T21:08:52.854Z,35.10
2023-04-22T21:11:20.185Z,35.30
2023-04-22T21:13:49.018Z,35.30
2023-04-22T21:16:19.540Z,36.10
2023-04-22T21:18:47.354Z,35.60
2023-04-22T21:21:17.941Z,35.80
2023-04-22T21:23:45.622Z,35.20
2023-04-22T21:26:15.671Z,35.20
2023-04-22T21:28:43.196Z,35.80
2023-04-22T21:31:11.932Z,35.70
2023-04-22T21:33:39.092Z,35.70
2023-04-22T21:36:06.458Z,35.90
2023-04-22T21:38:33.796Z,36.30
2023-04-22T21:41:00.784Z,35.90
2023-04-22T21:43:31.078Z,36.00
2023-04-22T21:45:58.117Z,36.00
2023-04-22T21:48:25.258Z,35.80
2023-04-22T21:50:52.438Z,36.10
2023-04-22T21:53:20.988Z,36.20
2023-04-22T21:55:48.039Z,36.00
2023-04-22T21:58:16.427Z,35.40
2023-04-22T22:00:43.685Z,35.80
2023-04-22T22:03:12.652Z,35.30
2023-04-22T22:05:40.252Z,35.00
2023-04-22T22:08:08.385Z,34.80
2023-04-22T22:10:35.487Z,34.50
2023-04-22T22:13:02.737Z,34.60
2023-04-22T22:15:30.486Z,34.40
2023-04-22T22:17:57.643Z,34.60
2023-04-22T22:20:24.961Z,34.90
2023-04-22T22:22:54.779Z,35.10
2023-04-22T22:25:21.844Z,34.90
2023-04-22T22:27:49.456Z,35.00
2023-04-22T22:30:18.685Z,35.10
2023-04-22T22:32:45.859Z,35.80
2023-04-22T22:35:13.552Z,35.70
2023-04-22T22:37:41.177Z,35.80
2023-04-22T22:40:09.101Z,35.70
2023-04-22T22:42:36.924Z,35.20
2023-04-22T22:45:05.319Z,35.60
2023-04-22T22:47:34.200Z,35.80
2023-04-22T22:50:01.484Z,36.30
2023-04-22T22:52:28.857Z,36.20
2023-04-22T22:54:55.927Z,36.30
2023-04-22T22:57:23.212Z,35.60
2023-04-22T22:59:50.737Z,35.20
2023-04-22T23:02:18.165Z,35.80
2023-04-22T23:04:48.888Z,35.70
2023-04-22T23:07:16.744Z,35.50
2023-04-22T23:09:43.824Z,35.50
2023-04-22T23:12:10.909Z,35.00
2023-04-22T23:14:38.032Z,35.20
2023-04-22T23:17:05.321Z,34.90
2023-04-22T23:19:33.067Z,34.90
2023-04-22T23:22:01.221Z,35.20
2023-04-22T23:24:28.636Z,35.30
2023-04-22T23:26:57.853Z,35.30
2023-04-22T23:29:25.200Z,35.40
2023-04-22T23:31:52.531Z,35.60
2023-04-22T23:34:26.555Z,34.50
2023-04-22T23:36:54.856Z,34.80
2023-04-22T23:39:21.802Z,34.30
2023-04-22T23:41:48.845Z,34.40
2023-04-22T23:44:15.819Z,35.00
2023-04-22T23:46:43.158Z,34.50
2023-04-22T23:49:11.037Z,34.00
2023-04-22T23:51:38.546Z,34.10
2023-04-22T23:54:05.706Z,34.00
2023-04-22T23:56:33.063Z,34.00
2023-04-22T23:59:00.438Z,33.50
